Главная страница
METAR-TAF:

METAR-TAF

Аэропорты :

Душанбе, Таджикистан

широта: 38-33N, долгота: 068-47E, высота над уровнем моря: 803 м

Текущие метеонаблюдения

Эта сводка был подготовлена 35 минут назад, в 10:30 UTC
Ветер 4 Узел переменных направлений
Температура 29°C
Влажность 18%
Давление 1015 hPa
Видимость 10 км и более

METAR: UTDD 241030Z VRB02MPS 9999 NSC 29/02 Q1015 R09/D NOSIG RMK QFE693/0924

Время: 16:05 (11:05 UTC)

Прогноз

Эта сводка был подготовлена 2 часа и 5 минут назад, в 09:00 UTC
Прогноз действительный с 24-го 10 UTC до 24-го 22 UTC
Ветер 4 Узел переменных направлений
Видимость: 6000 м
небольшая облачность на высоте 6600 фута, Кучево-дождевые.
Отдельные облака на высоте 13000 фута
временами
С 24-го 10 UTC до 24-го 19 UTC
Ветер 12 Узел от западный

TAF: UTDD 240900Z 2410/2422 VRB02MPS 6000 FEW066CB SCT130 TEMPO 2410/2419 27006MPS

Метеонаблюдения и прогнозы для более 4000 аэропортов (сводки METAR и TAF).

Имеющиеся станции представлены на карте желтыми и красными точками.

Чтобы увидеть название станции, наведите на нее мышь.

Затем щелкните, чтобы увидеть метеонаблюдения и метеопрогнозы.

Управление картой: чтобы увеличить масштаб, щелкните зеленые кнопки с черным крестиком; чтобы уменьшить масштаб, щелкните зеленую кнопку с тире; для просмотра соседних карт щелкайте зеленые стрелки.


METAR-TAF: